createdAt,value
2019-01-11T00:01:31.229Z,9.45
2019-01-11T00:03:58.507Z,9.05
2019-01-11T00:06:25.778Z,8.65
2019-01-11T00:08:53.111Z,9.00
2019-01-11T00:11:20.368Z,9.30
2019-01-11T00:13:47.647Z,9.58
2019-01-11T00:16:14.944Z,9.80
2019-01-11T00:18:42.220Z,9.13
2019-01-11T00:21:09.496Z,9.03
2019-01-11T00:23:36.814Z,9.18
2019-01-11T00:26:04.087Z,9.60
2019-01-11T00:28:31.397Z,9.13
2019-01-11T00:30:58.660Z,9.13
2019-01-11T00:33:25.994Z,8.70
2019-01-11T00:35:53.231Z,9.08
2019-01-11T00:38:20.505Z,8.93
2019-01-11T00:40:47.774Z,8.90
2019-01-11T00:43:15.362Z,8.23
2019-01-11T00:45:42.679Z,8.60
2019-01-11T00:48:09.955Z,8.50
2019-01-11T00:50:37.227Z,8.40
2019-01-11T00:53:04.528Z,9.30
2019-01-11T00:55:31.815Z,9.58
2019-01-11T00:57:59.171Z,9.28
2019-01-11T01:00:26.471Z,9.80
2019-01-11T01:02:53.754Z,9.93
2019-01-11T01:05:21.071Z,10.98
2019-01-11T01:07:48.537Z,11.78
2019-01-11T01:10:15.922Z,10.88
2019-01-11T01:12:43.187Z,10.55
2019-01-11T01:15:11.461Z,10.95
2019-01-11T01:17:38.737Z,10.55
2019-01-11T01:20:10.714Z,10.20
2019-01-11T01:22:38.019Z,10.20
2019-01-11T01:25:05.534Z,11.60
2019-01-11T01:27:32.811Z,12.18
2019-01-11T01:30:00.167Z,11.30
2019-01-11T01:32:27.398Z,11.93
2019-01-11T01:34:54.720Z,12.15
2019-01-11T01:37:21.999Z,11.50
2019-01-11T01:39:49.278Z,10.85
2019-01-11T01:42:16.579Z,12.43
2019-01-11T01:44:43.867Z,10.95
2019-01-11T01:47:11.176Z,11.68
2019-01-11T01:49:38.456Z,11.33
2019-01-11T01:52:05.745Z,12.10
2019-01-11T01:54:33.057Z,10.75
2019-01-11T01:57:00.279Z,11.22
2019-01-11T01:59:27.584Z,12.07
2019-01-11T02:01:54.872Z,11.45
2019-01-11T02:04:22.177Z,12.03
2019-01-11T02:06:49.484Z,12.35
2019-01-11T02:09:16.766Z,13.58
2019-01-11T02:11:44.066Z,13.13
2019-01-11T02:14:11.352Z,12.68
2019-01-11T02:16:38.631Z,12.03
2019-01-11T02:19:05.974Z,11.70
2019-01-11T02:21:33.255Z,12.73
2019-01-11T02:24:00.568Z,12.50
2019-01-11T02:26:27.851Z,12.37
2019-01-11T02:28:55.135Z,12.28
2019-01-11T02:31:22.451Z,11.30
2019-01-11T02:33:49.735Z,12.00
2019-01-11T02:36:17.038Z,11.88
2019-01-11T02:38:44.321Z,11.60
2019-01-11T02:41:11.635Z,12.03
2019-01-11T02:43:38.990Z,12.05
2019-01-11T02:46:06.271Z,11.15
2019-01-11T02:48:33.575Z,11.70
2019-01-11T02:51:00.855Z,11.33
2019-01-11T02:53:28.192Z,11.10
2019-01-11T02:55:55.473Z,11.78
2019-01-11T02:58:22.750Z,11.08
2019-01-11T03:00:49.988Z,11.43
2019-01-11T03:03:17.272Z,10.88
2019-01-11T03:05:44.575Z,11.33
2019-01-11T03:08:11.861Z,11.65
2019-01-11T03:10:39.597Z,11.05
2019-01-11T03:13:06.875Z,11.20
2019-01-11T03:15:34.148Z,11.10
2019-01-11T03:18:01.467Z,10.58
2019-01-11T03:20:28.783Z,11.35
2019-01-11T03:22:56.058Z,10.75
2019-01-11T03:25:23.269Z,11.05
2019-01-11T03:27:50.577Z,10.30
2019-01-11T03:30:18.751Z,11.10
2019-01-11T03:32:46.037Z,10.80
2019-01-11T03:35:17.337Z,9.65
2019-01-11T03:37:47.595Z,11.05
2019-01-11T03:40:25.412Z,11.08
2019-01-11T03:42:53.232Z,11.75
2019-01-11T03:45:20.983Z,10.60
2019-01-11T03:47:48.285Z,11.45
2019-01-11T03:50:16.165Z,11.48
2019-01-11T03:52:43.449Z,10.90
2019-01-11T03:55:11.736Z,10.50
2019-01-11T03:57:39.018Z,11.10
2019-01-11T04:00:10.617Z,10.70
2019-01-11T04:02:37.923Z,11.83
2019-01-11T04:05:05.992Z,11.43
2019-01-11T04:07:33.271Z,12.03
2019-01-11T04:10:00.570Z,11.65
2019-01-11T04:12:27.775Z,11.03
2019-01-11T04:14:55.059Z,11.55
2019-01-11T04:17:22.359Z,11.20
2019-01-11T04:19:49.661Z,11.18
2019-01-11T04:22:18.506Z,11.68
2019-01-11T04:25:05.430Z,11.00
2019-01-11T04:27:32.708Z,12.20
2019-01-11T04:29:59.992Z,11.88
2019-01-11T04:32:27.296Z,12.53
2019-01-11T04:34:54.580Z,12.07
2019-01-11T04:37:24.670Z,11.43
2019-01-11T04:39:59.832Z,11.20
2019-01-11T04:42:27.435Z,11.30
2019-01-11T04:44:54.659Z,12.15
2019-01-11T04:47:21.967Z,11.50
2019-01-11T04:49:49.267Z,12.00
2019-01-11T04:52:16.575Z,12.05
2019-01-11T04:54:43.928Z,11.90
2019-01-11T04:57:11.218Z,12.05
2019-01-11T04:59:38.522Z,11.95
2019-01-11T05:02:05.796Z,12.43
2019-01-11T05:04:33.164Z,12.28
2019-01-11T05:07:00.469Z,13.18
2019-01-11T05:09:27.750Z,12.47
2019-01-11T05:11:55.031Z,13.75
2019-01-11T05:14:22.330Z,13.55
2019-01-11T05:16:49.550Z,12.68
2019-01-11T05:19:16.826Z,12.78
2019-01-11T05:21:44.138Z,13.90
2019-01-11T05:24:11.410Z,14.98
2019-01-11T05:26:38.652Z,14.90
2019-01-11T05:29:05.934Z,15.43
2019-01-11T05:31:33.152Z,17.65
2019-01-11T05:34:00.463Z,17.65
2019-01-11T05:36:27.747Z,18.85
2019-01-11T05:38:55.058Z,17.40
2019-01-11T05:41:22.372Z,18.37
2019-01-11T05:43:49.659Z,18.92
2019-01-11T05:46:16.956Z,20.55
2019-01-11T05:48:44.282Z,19.20
2019-01-11T05:51:11.558Z,21.57
2019-01-11T05:53:38.792Z,23.07
2019-01-11T05:56:07.520Z,21.40
2019-01-11T05:58:36.193Z,18.57
2019-01-11T06:01:03.507Z,23.20
2019-01-11T06:03:30.879Z,20.10
2019-01-11T06:05:58.160Z,19.20
2019-01-11T06:08:25.712Z,20.45
2019-01-11T06:10:53.023Z,20.23
2019-01-11T06:13:20.302Z,22.82
2019-01-11T06:15:47.513Z,21.82
2019-01-11T06:18:14.853Z,22.98
2019-01-11T06:20:42.204Z,20.68
2019-01-11T06:23:09.514Z,21.02
2019-01-11T06:25:36.809Z,20.02
2019-01-11T06:28:04.094Z,21.40
2019-01-11T06:30:31.394Z,22.40
2019-01-11T06:32:58.674Z,24.15
2019-01-11T06:35:26.013Z,24.40
2019-01-11T06:37:53.324Z,24.50
2019-01-11T06:40:20.610Z,22.45
2019-01-11T06:42:47.879Z,23.20
2019-01-11T06:45:15.334Z,22.65
2019-01-11T06:47:43.093Z,21.45
2019-01-11T06:50:11.962Z,23.98
2019-01-11T06:52:39.268Z,22.02
2019-01-11T06:55:07.415Z,22.77
2019-01-11T06:57:34.781Z,22.30
2019-01-11T07:00:02.296Z,22.10
2019-01-11T07:02:29.674Z,20.70
2019-01-11T07:04:56.980Z,24.60
2019-01-11T07:07:24.260Z,24.98
2019-01-11T07:09:51.572Z,23.52
2019-01-11T07:12:19.322Z,23.60
2019-01-11T07:14:46.684Z,23.62
2019-01-11T07:17:13.982Z,26.57
2019-01-11T07:19:41.194Z,22.52
2019-01-11T07:22:08.475Z,23.50
2019-01-11T07:24:35.787Z,23.70
2019-01-11T07:27:03.137Z,24.05
2019-01-11T07:29:30.441Z,22.22
2019-01-11T07:31:59.365Z,22.60
2019-01-11T07:34:26.648Z,23.98
2019-01-11T07:36:53.987Z,24.20
2019-01-11T07:39:22.899Z,24.02
2019-01-11T07:41:50.226Z,20.80
2019-01-11T07:44:17.530Z,23.67
2019-01-11T07:46:44.878Z,23.95
2019-01-11T07:49:12.087Z,25.23
2019-01-11T07:51:39.411Z,21.97
2019-01-11T07:54:06.758Z,22.20
2019-01-11T07:56:34.048Z,21.20
2019-01-11T07:59:01.360Z,23.55
2019-01-11T08:01:30.272Z,22.50
2019-01-11T08:03:57.577Z,28.45
2019-01-11T08:06:24.866Z,22.40
2019-01-11T08:08:52.134Z,22.02
2019-01-11T08:11:19.447Z,20.23
2019-01-11T08:13:46.726Z,25.30
2019-01-11T08:16:14.011Z,24.12
2019-01-11T08:18:41.327Z,25.05
2019-01-11T08:21:08.603Z,25.85
2019-01-11T08:23:35.878Z,27.17
2019-01-11T08:26:03.109Z,26.37
2019-01-11T08:28:32.118Z,26.87
2019-01-11T08:30:59.424Z,26.80
2019-01-11T08:33:26.733Z,27.60
2019-01-11T08:35:54.012Z,30.40
2019-01-11T08:38:21.321Z,28.27
2019-01-11T08:40:48.607Z,28.35
2019-01-11T08:43:16.255Z,31.45
2019-01-11T08:45:43.555Z,26.25
2019-01-11T08:48:10.851Z,29.12
2019-01-11T08:50:38.565Z,32.25
2019-01-11T08:53:05.843Z,30.75
2019-01-11T08:55:33.215Z,29.02
2019-01-11T08:58:00.531Z,31.87
2019-01-11T09:00:27.820Z,28.87
2019-01-11T09:02:55.107Z,29.57
2019-01-11T09:05:22.424Z,32.55
2019-01-11T09:07:49.702Z,28.30
2019-01-11T09:10:22.830Z,28.50
2019-01-11T09:12:46.447Z,29.18
2019-01-11T09:15:13.756Z,28.90
2019-01-11T09:17:42.686Z,27.98
2019-01-11T09:20:09.991Z,27.22
2019-01-11T09:22:37.299Z,27.77
2019-01-11T09:25:05.081Z,26.50
2019-01-11T09:27:32.411Z,29.35
2019-01-11T09:29:59.766Z,26.17
2019-01-11T09:32:27.149Z,30.75
2019-01-11T09:34:54.452Z,28.87
2019-01-11T09:37:21.737Z,26.00
2019-01-11T09:39:49.052Z,29.55
2019-01-11T09:42:16.404Z,28.35
2019-01-11T09:44:43.690Z,30.27
2019-01-11T09:47:11.008Z,35.60
2019-01-11T09:49:38.296Z,28.98
2019-01-11T09:52:05.611Z,26.97
2019-01-11T09:54:32.934Z,27.95
2019-01-11T09:57:00.223Z,29.42
2019-01-11T09:59:27.557Z,27.42
2019-01-11T10:01:58.683Z,29.90
2019-01-11T10:04:28.775Z,27.15
2019-01-11T10:06:58.783Z,28.87
2019-01-11T10:09:27.671Z,30.32
2019-01-11T10:11:54.990Z,30.05
2019-01-11T10:14:23.505Z,29.18
2019-01-11T10:16:52.288Z,28.42
2019-01-11T10:19:21.446Z,31.02
2019-01-11T10:21:49.272Z,28.95
2019-01-11T10:24:16.597Z,29.92
2019-01-11T10:26:43.978Z,32.83
2019-01-11T10:29:11.306Z,30.48
2019-01-11T10:31:38.589Z,27.93
2019-01-11T10:34:05.878Z,31.68
2019-01-11T10:36:33.257Z,30.80
2019-01-11T10:39:00.548Z,29.90
2019-01-11T10:41:27.862Z,28.80
2019-01-11T10:43:55.643Z,35.83
2019-01-11T10:46:30.531Z,40.15
2019-01-11T10:48:57.762Z,32.05
2019-01-11T10:51:28.170Z,34.78
2019-01-11T10:53:53.965Z,40.60
2019-01-11T10:56:21.239Z,36.50
2019-01-11T10:58:48.523Z,42.10
2019-01-11T11:01:15.829Z,38.83
2019-01-11T11:03:43.472Z,43.45
2019-01-11T11:06:10.758Z,37.30
2019-01-11T11:08:38.062Z,37.08
2019-01-11T11:11:05.358Z,35.15
2019-01-11T11:13:32.623Z,37.98
2019-01-11T11:16:00.881Z,37.48
2019-01-11T11:18:28.163Z,36.13
2019-01-11T11:20:55.452Z,40.58
2019-01-11T11:23:22.774Z,35.17
2019-01-11T11:25:50.054Z,36.13
2019-01-11T11:28:17.374Z,37.20
2019-01-11T11:30:44.652Z,35.20
2019-01-11T11:33:12.638Z,41.30
2019-01-11T11:35:39.933Z,40.67
2019-01-11T11:38:07.219Z,43.15
2019-01-11T11:40:34.602Z,40.95
2019-01-11T11:43:01.899Z,40.95
2019-01-11T11:45:29.168Z,35.43
2019-01-11T11:47:56.479Z,37.25
2019-01-11T11:50:23.754Z,39.45
2019-01-11T11:52:50.959Z,40.70
2019-01-11T11:55:18.259Z,37.65
2019-01-11T11:57:45.552Z,33.70
2019-01-11T12:00:14.328Z,39.73
2019-01-11T12:02:41.608Z,36.98
2019-01-11T12:05:08.901Z,43.42
2019-01-11T12:07:36.202Z,37.80
2019-01-11T12:10:04.346Z,47.35
2019-01-11T12:12:31.605Z,54.30
2019-01-11T12:14:58.855Z,46.90
2019-01-11T12:17:26.169Z,64.82
2019-01-11T12:19:57.007Z,41.10
2019-01-11T12:22:22.552Z,36.70
2019-01-11T12:24:49.853Z,34.95
2019-01-11T12:27:17.134Z,39.23
2019-01-11T12:29:44.444Z,37.73
2019-01-11T12:32:11.728Z,39.85
2019-01-11T12:34:39.043Z,35.95
2019-01-11T12:37:06.318Z,38.58
2019-01-11T12:39:33.600Z,41.88
2019-01-11T12:42:00.908Z,48.48
2019-01-11T12:44:28.200Z,43.90
2019-01-11T12:46:55.512Z,45.20
2019-01-11T12:49:22.791Z,41.55
2019-01-11T12:51:53.994Z,49.20
2019-01-11T12:54:19.027Z,44.25
2019-01-11T12:56:46.302Z,48.13
2019-01-11T12:59:13.611Z,38.08
2019-01-11T13:01:40.893Z,42.98
2019-01-11T13:04:08.175Z,39.15
2019-01-11T13:06:35.482Z,39.38
2019-01-11T13:09:02.839Z,39.83
2019-01-11T13:11:30.114Z,39.40
2019-01-11T13:13:57.423Z,40.08
2019-01-11T13:16:24.711Z,44.63
2019-01-11T13:18:52.014Z,43.60
2019-01-11T13:21:19.218Z,39.20
2019-01-11T13:23:46.439Z,40.25
2019-01-11T13:26:13.738Z,36.98
2019-01-11T13:28:41.027Z,70.10
2019-01-11T13:31:08.480Z,39.78
2019-01-11T13:33:35.716Z,39.58
2019-01-11T13:36:04.638Z,45.83
2019-01-11T13:38:31.923Z,40.38
2019-01-11T13:40:59.239Z,54.10
2019-01-11T13:43:26.523Z,39.65
2019-01-11T13:45:53.816Z,46.73
2019-01-11T13:48:23.182Z,40.38
2019-01-11T13:50:50.471Z,40.05
2019-01-11T13:53:17.739Z,43.38
2019-01-11T13:55:44.972Z,44.38
2019-01-11T13:58:12.256Z,39.27
2019-01-11T14:00:39.563Z,37.70
2019-01-11T14:03:06.971Z,44.33
2019-01-11T14:05:34.266Z,38.88
2019-01-11T14:08:01.505Z,38.38
2019-01-11T14:10:28.806Z,53.17
2019-01-11T14:12:56.087Z,41.02
2019-01-11T14:15:23.372Z,35.23
2019-01-11T14:17:50.679Z,40.48
2019-01-11T14:20:17.886Z,43.33
2019-01-11T14:22:45.179Z,37.65
2019-01-11T14:25:12.490Z,38.25
2019-01-11T14:27:39.766Z,44.53
2019-01-11T14:30:11.609Z,35.75
2019-01-11T14:32:38.827Z,40.33
2019-01-11T14:35:06.880Z,35.50
2019-01-11T14:37:34.187Z,43.52
2019-01-11T14:40:01.469Z,40.73
2019-01-11T14:42:28.755Z,38.13
2019-01-11T14:44:56.177Z,29.95
2019-01-11T14:47:23.468Z,31.57
2019-01-11T14:49:50.755Z,32.65
2019-01-11T14:52:20.498Z,31.90
2019-01-11T14:54:46.992Z,31.33
2019-01-11T14:57:14.271Z,33.20
2019-01-11T14:59:41.652Z,32.78
2019-01-11T15:02:08.934Z,34.98
2019-01-11T15:04:36.210Z,33.80
2019-01-11T15:07:03.511Z,40.27
2019-01-11T15:09:30.811Z,31.45
2019-01-11T15:11:58.037Z,32.28
2019-01-11T15:14:25.305Z,30.77
2019-01-11T15:16:52.611Z,33.37
2019-01-11T15:19:19.891Z,29.35
2019-01-11T15:21:47.203Z,31.82
2019-01-11T15:24:14.501Z,30.85
2019-01-11T15:26:41.706Z,29.40
2019-01-11T15:29:08.935Z,30.92
2019-01-11T15:31:36.243Z,31.50
2019-01-11T15:34:03.525Z,31.52
2019-01-11T15:36:30.823Z,34.40
2019-01-11T15:38:58.136Z,30.72
2019-01-11T15:41:25.419Z,32.75
2019-01-11T15:43:52.721Z,37.30
2019-01-11T15:46:20.010Z,35.20
2019-01-11T15:48:47.790Z,34.70
2019-01-11T15:51:16.338Z,32.90
2019-01-11T15:53:43.614Z,34.00
2019-01-11T15:56:10.846Z,34.70
2019-01-11T15:58:38.058Z,33.80
2019-01-11T16:01:05.378Z,33.18
2019-01-11T16:03:32.615Z,34.20
2019-01-11T16:06:16.852Z,32.80
2019-01-11T16:08:57.840Z,34.17
2019-01-11T16:11:32.579Z,31.80
2019-01-11T16:14:01.534Z,32.63
2019-01-11T16:16:28.794Z,31.00
2019-01-11T16:18:56.079Z,34.30
2019-01-11T16:21:23.384Z,31.90
2019-01-11T16:23:50.654Z,34.78
2019-01-11T16:26:17.967Z,34.45
2019-01-11T16:28:45.241Z,33.87
2019-01-11T16:31:12.454Z,33.98
2019-01-11T16:33:39.758Z,31.52
2019-01-11T16:36:07.039Z,34.33
2019-01-11T16:38:34.331Z,34.73
2019-01-11T16:41:01.624Z,30.40
2019-01-11T16:43:28.908Z,33.15
2019-01-11T16:45:56.219Z,34.25
2019-01-11T16:48:23.508Z,31.73
2019-01-11T16:50:50.792Z,30.85
2019-01-11T16:53:18.090Z,31.33
2019-01-11T16:55:46.539Z,32.15
2019-01-11T16:58:13.892Z,31.30
2019-01-11T17:00:41.162Z,31.27
2019-01-11T17:03:08.374Z,36.75
2019-01-11T17:05:35.687Z,37.45
2019-01-11T17:08:02.983Z,34.10
2019-01-11T17:10:30.254Z,31.95
2019-01-11T17:12:57.623Z,31.97
2019-01-11T17:15:24.935Z,27.87
2019-01-11T17:17:52.215Z,34.55
2019-01-11T17:20:19.501Z,36.30
2019-01-11T17:22:52.740Z,28.47
2019-01-11T17:25:15.907Z,31.93
2019-01-11T17:27:43.189Z,31.87
2019-01-11T17:30:12.104Z,30.77
2019-01-11T17:32:39.409Z,33.23
2019-01-11T17:35:06.665Z,32.95
2019-01-11T17:37:33.966Z,29.35
2019-01-11T17:40:01.282Z,31.55
2019-01-11T17:42:28.596Z,34.48
2019-01-11T17:44:55.870Z,34.73
2019-01-11T17:47:23.183Z,33.80
2019-01-11T17:49:50.493Z,29.50
2019-01-11T17:52:17.776Z,32.58
2019-01-11T17:54:45.078Z,32.73
2019-01-11T17:57:12.316Z,29.82
2019-01-11T17:59:39.618Z,29.60
2019-01-11T18:02:06.911Z,28.80
2019-01-11T18:04:34.184Z,32.23
2019-01-11T18:07:01.500Z,30.25
2019-01-11T18:09:28.794Z,30.23
2019-01-11T18:11:56.071Z,31.48
2019-01-11T18:14:23.383Z,32.33
2019-01-11T18:16:50.671Z,34.33
2019-01-11T18:19:17.956Z,29.40
2019-01-11T18:21:45.277Z,29.60
2019-01-11T18:24:12.561Z,28.63
2019-01-11T18:26:39.869Z,29.23
2019-01-11T18:29:07.164Z,29.30
2019-01-11T18:31:34.479Z,27.52
2019-01-11T18:34:01.764Z,26.60
2019-01-11T18:36:29.114Z,26.70
2019-01-11T18:38:56.443Z,26.75
2019-01-11T18:41:23.725Z,26.37
2019-01-11T18:43:51.021Z,27.82
2019-01-11T18:46:18.363Z,27.77
2019-01-11T18:48:45.660Z,27.13
2019-01-11T18:51:12.943Z,25.88
2019-01-11T18:53:40.291Z,29.98
2019-01-11T18:56:07.584Z,26.42
2019-01-11T18:58:34.878Z,29.50
2019-01-11T19:01:02.231Z,29.25
2019-01-11T19:03:29.613Z,27.60
2019-01-11T19:05:56.910Z,30.92
2019-01-11T19:08:24.115Z,31.13
2019-01-11T19:10:51.423Z,27.85
2019-01-11T19:13:18.711Z,28.47
2019-01-11T19:15:45.988Z,29.63
2019-01-11T19:18:13.287Z,29.37
2019-01-11T19:20:40.602Z,29.67
2019-01-11T19:23:07.900Z,30.33
2019-01-11T19:25:35.192Z,28.10
2019-01-11T19:28:02.504Z,26.97
2019-01-11T19:30:29.791Z,26.48
2019-01-11T19:32:57.070Z,30.72
2019-01-11T19:35:24.314Z,27.85
2019-01-11T19:37:51.592Z,36.80
2019-01-11T19:40:18.871Z,27.62
2019-01-11T19:42:47.512Z,29.85
2019-01-11T19:45:15.355Z,27.82
2019-01-11T19:47:42.704Z,28.65
2019-01-11T19:50:11.383Z,28.50
2019-01-11T19:52:38.658Z,28.13
2019-01-11T19:55:06.722Z,26.37
2019-01-11T19:57:33.934Z,27.80
2019-01-11T20:00:01.176Z,27.50
2019-01-11T20:02:28.459Z,26.00
2019-01-11T20:04:55.730Z,24.23
2019-01-11T20:07:22.976Z,24.18
2019-01-11T20:09:50.248Z,23.47
2019-01-11T20:12:17.547Z,23.92
2019-01-11T20:14:44.879Z,22.22
2019-01-11T20:17:14.174Z,24.30
2019-01-11T20:19:41.076Z,21.70
2019-01-11T20:22:08.374Z,20.50
2019-01-11T20:24:35.630Z,21.07
2019-01-11T20:27:02.930Z,20.50
2019-01-11T20:29:30.198Z,18.30
2019-01-11T20:31:57.541Z,20.25
2019-01-11T20:34:24.848Z,19.92
2019-01-11T20:36:53.787Z,20.32
2019-01-11T20:39:21.090Z,19.17
2019-01-11T20:41:48.371Z,20.02
2019-01-11T20:44:15.643Z,19.95
2019-01-11T20:46:42.926Z,20.20
2019-01-11T20:49:10.211Z,22.65
2019-01-11T20:51:37.516Z,21.20
2019-01-11T20:54:04.799Z,22.73
2019-01-11T20:56:32.384Z,21.62
2019-01-11T20:58:59.662Z,22.33
2019-01-11T21:01:26.941Z,21.95
2019-01-11T21:03:54.288Z,20.12
2019-01-11T21:06:21.571Z,23.70
2019-01-11T21:08:48.865Z,21.27
2019-01-11T21:11:16.074Z,16.77
2019-01-11T21:13:43.378Z,18.40
2019-01-11T21:16:10.617Z,17.12
2019-01-11T21:18:37.894Z,20.80
2019-01-11T21:21:05.267Z,18.60
2019-01-11T21:23:32.547Z,20.45
2019-01-11T21:25:59.859Z,20.27
2019-01-11T21:28:27.194Z,20.82
2019-01-11T21:30:57.434Z,20.30
2019-01-11T21:33:23.440Z,20.03
2019-01-11T21:35:50.723Z,21.45
2019-01-11T21:38:18.036Z,22.00
2019-01-11T21:40:45.336Z,21.65
2019-01-11T21:43:12.619Z,20.25
2019-01-11T21:45:39.929Z,20.80
2019-01-11T21:48:07.243Z,21.42
2019-01-11T21:50:34.527Z,23.02
2019-01-11T21:53:01.807Z,22.02
2019-01-11T21:55:29.106Z,21.30
2019-01-11T21:57:56.393Z,22.80
2019-01-11T22:00:31.275Z,20.37
2019-01-11T22:02:58.579Z,20.70
2019-01-11T22:05:25.889Z,22.80
2019-01-11T22:07:53.167Z,21.45
2019-01-11T22:10:20.455Z,20.83
2019-01-11T22:12:47.842Z,18.55
2019-01-11T22:15:16.775Z,20.55
2019-01-11T22:17:44.087Z,20.75
2019-01-11T22:20:12.566Z,21.50
2019-01-11T22:22:39.850Z,19.57
2019-01-11T22:25:08.203Z,23.17
2019-01-11T22:27:35.507Z,22.17
2019-01-11T22:30:03.060Z,24.67
2019-01-11T22:32:30.349Z,27.27
2019-01-11T22:34:57.658Z,26.70
2019-01-11T22:37:24.864Z,23.52
2019-01-11T22:39:52.155Z,33.40
2019-01-11T22:42:19.469Z,24.83
2019-01-11T22:44:46.743Z,29.52
2019-01-11T22:47:14.022Z,29.60
2019-01-11T22:49:41.330Z,27.03
2019-01-11T22:52:08.616Z,24.95
2019-01-11T22:54:35.922Z,31.95
2019-01-11T22:57:03.238Z,36.45
2019-01-11T22:59:30.538Z,25.77
2019-01-11T23:01:59.493Z,24.47
2019-01-11T23:04:26.801Z,22.55
2019-01-11T23:06:55.723Z,22.20
2019-01-11T23:09:24.275Z,21.67
2019-01-11T23:11:53.416Z,21.82
2019-01-11T23:14:20.706Z,23.77
2019-01-11T23:16:48.512Z,25.33
2019-01-11T23:19:15.819Z,23.55
2019-01-11T23:21:43.106Z,22.70
2019-01-11T23:24:17.158Z,24.23
2019-01-11T23:26:39.390Z,23.67
2019-01-11T23:29:06.671Z,24.90
2019-01-11T23:31:33.958Z,24.03
2019-01-11T23:34:01.253Z,24.30
2019-01-11T23:36:28.470Z,25.15
2019-01-11T23:38:55.757Z,24.12
2019-01-11T23:41:23.075Z,22.85
2019-01-11T23:43:50.360Z,23.52
2019-01-11T23:46:17.643Z,23.40
2019-01-11T23:48:44.942Z,24.40
2019-01-11T23:51:12.162Z,22.02
2019-01-11T23:53:39.438Z,23.32
2019-01-11T23:56:06.756Z,22.20
2019-01-11T23:58:34.042Z,20.30
